Time;durP1;ratioP1;P1;durP2;ratioP2;P2;SDS_P1;SDS_P2;PMS_P1;PMS_P2;Temp;Humidity;BMP_temperature;BMP_pressure;BME280_temperature;BME280_humidity;BME280_pressure;Samples;Min_cycle;Max_cycle;Signal;HPM_P1;HPM_P2
2021/09/08 00:00:15;;;;;;;16.88;13.70;;;14.50;99.90;;;;;;5052774;28;20654;-67
2021/09/08 00:02:43;;;;;;;14.32;12.85;;;14.40;99.90;;;;;;5053005;28;20296;-67
2021/09/08 00:05:12;;;;;;;14.95;12.98;;;14.40;99.90;;;;;;5052703;28;20282;-68
2021/09/08 00:07:40;;;;;;;18.52;13.77;;;14.40;99.90;;;;;;5052939;28;20213;-66
2021/09/08 00:10:09;;;;;;;14.88;13.05;;;14.40;99.90;;;;;;5052125;28;20209;-67
2021/09/08 00:12:37;;;;;;;16.15;13.63;;;14.40;99.90;;;;;;5052648;28;20692;-68
2021/09/08 00:15:09;;;;;;;14.95;13.35;;;14.40;99.90;;;;;;5052548;28;20206;-67
2021/09/08 00:17:39;;;;;;;15.20;12.65;;;14.30;99.90;;;;;;5053017;28;20217;-67
2021/09/08 00:20:08;;;;;;;15.65;13.38;;;14.30;99.90;;;;;;5052875;28;20786;-67
2021/09/08 00:22:36;;;;;;;16.42;14.32;;;14.30;99.90;;;;;;5052441;28;20670;-68
2021/09/08 00:25:06;;;;;;;15.70;13.43;;;14.30;99.90;;;;;;5052770;28;20202;-67
2021/09/08 00:27:35;;;;;;;16.40;13.65;;;14.20;99.90;;;;;;5052497;28;20280;-68
2021/09/08 00:30:04;;;;;;;16.60;13.80;;;14.20;99.90;;;;;;5052507;28;20197;-66
2021/09/08 00:32:34;;;;;;;16.77;13.75;;;14.30;99.90;;;;;;5052331;28;20201;-67
2021/09/08 00:35:03;;;;;;;17.00;13.93;;;14.20;99.90;;;;;;5052734;28;20285;-67
2021/09/08 00:37:31;;;;;;;17.52;13.48;;;14.20;99.90;;;;;;5052493;28;20216;-66
2021/09/08 00:39:59;;;;;;;16.52;14.10;;;14.20;99.90;;;;;;5052605;28;20713;-67
2021/09/08 00:42:27;;;;;;;18.27;14.88;;;14.20;99.90;;;;;;5052632;28;20293;-67
2021/09/08 00:44:54;;;;;;;19.38;14.75;;;14.20;99.90;;;;;;5052364;28;20205;-66
2021/09/08 00:47:22;;;;;;;17.63;14.13;;;14.10;99.90;;;;;;5052619;28;20194;-67
2021/09/08 00:49:52;;;;;;;18.15;14.80;;;14.10;99.90;;;;;;5052227;28;20206;-67
2021/09/08 00:52:20;;;;;;;19.10;15.57;;;14.10;99.90;;;;;;5052077;28;20292;-68
2021/09/08 00:54:49;;;;;;;17.88;15.18;;;14.10;99.90;;;;;;5052417;28;20197;-68
2021/09/08 00:57:20;;;;;;;16.40;14.63;;;14.10;99.90;;;;;;5052407;28;20335;-68
2021/09/08 00:59:48;;;;;;;17.15;14.60;;;14.00;99.90;;;;;;5052541;28;20198;-67
2021/09/08 01:02:16;;;;;;;19.23;14.50;;;14.10;99.90;;;;;;5052289;28;20202;-68
2021/09/08 01:04:45;;;;;;;19.63;15.67;;;14.00;99.90;;;;;;5052084;28;20629;-66
2021/09/08 01:07:14;;;;;;;18.98;16.08;;;14.10;99.90;;;;;;5051862;28;20259;-67
2021/09/08 01:09:42;;;;;;;17.63;15.50;;;14.10;99.90;;;;;;5052319;28;20197;-67
2021/09/08 01:12:10;;;;;;;18.08;15.45;;;14.00;99.90;;;;;;5052407;28;20201;-68
2021/09/08 01:14:38;;;;;;;18.48;15.90;;;14.10;99.90;;;;;;5052255;28;20241;-69
2021/09/08 01:17:06;;;;;;;20.40;16.42;;;14.10;99.90;;;;;;5052967;28;20217;-69
2021/09/08 01:19:34;;;;;;;19.77;15.63;;;14.10;99.90;;;;;;5052506;28;20292;-67
2021/09/08 01:22:02;;;;;;;20.35;15.48;;;14.00;99.90;;;;;;5054791;28;20201;-68
2021/09/08 01:24:31;;;;;;;20.92;15.57;;;14.00;99.90;;;;;;5055846;28;20201;-68
2021/09/08 01:26:59;;;;;;;18.40;15.50;;;14.00;99.90;;;;;;5055945;28;20204;-68
2021/09/08 01:29:27;;;;;;;21.80;16.33;;;14.00;99.90;;;;;;5055475;28;20740;-68
2021/09/08 01:31:58;;;;;;;19.67;15.97;;;14.00;99.90;;;;;;5055714;28;20649;-68
2021/09/08 01:34:26;;;;;;;19.50;15.95;;;14.00;99.90;;;;;;5055550;28;20221;-68
2021/09/08 01:36:54;;;;;;;18.77;16.40;;;13.90;99.90;;;;;;5055535;28;20227;-69
2021/09/08 01:39:23;;;;;;;20.83;17.25;;;13.90;99.90;;;;;;5055652;28;20583;-67
2021/09/08 01:41:52;;;;;;;19.20;16.40;;;13.90;99.90;;;;;;5055565;28;20201;-68
2021/09/08 01:44:22;;;;;;;19.27;15.95;;;13.90;99.90;;;;;;5055176;28;20663;-68
2021/09/08 01:46:52;;;;;;;20.95;16.52;;;13.90;99.90;;;;;;5055189;28;20228;-68
2021/09/08 01:49:20;;;;;;;21.48;16.52;;;13.90;99.90;;;;;;5055577;28;20582;-68
2021/09/08 01:51:50;;;;;;;19.85;16.38;;;13.80;99.90;;;;;;5055301;28;20200;-67
2021/09/08 01:54:20;;;;;;;21.95;17.08;;;13.80;99.90;;;;;;5055250;28;20209;-68
2021/09/08 01:56:47;;;;;;;22.65;15.70;;;13.80;99.90;;;;;;5055182;28;20249;-68
2021/09/08 01:59:17;;;;;;;20.83;17.23;;;13.80;99.90;;;;;;5055328;28;20295;-67
2021/09/08 02:01:45;;;;;;;19.00;16.67;;;13.80;99.90;;;;;;5055099;28;20200;-68
2021/09/08 02:04:13;;;;;;;20.92;16.42;;;13.80;99.90;;;;;;5055138;28;20228;-67
2021/09/08 02:06:48;;;;;;;21.98;17.38;;;13.80;99.90;;;;;;5054651;28;20316;-67
2021/09/08 02:09:16;;;;;;;19.75;15.65;;;13.70;99.90;;;;;;5055110;28;20203;-67
2021/09/08 02:11:45;;;;;;;18.73;15.60;;;13.70;99.90;;;;;;5055132;28;20288;-67
2021/09/08 02:14:13;;;;;;;20.55;15.80;;;13.70;99.90;;;;;;5054985;28;20197;-68
2021/09/08 02:16:42;;;;;;;19.38;16.05;;;13.80;99.90;;;;;;5054652;28;20227;-67
2021/09/08 02:19:10;;;;;;;19.33;16.05;;;13.80;99.90;;;;;;5054607;28;20292;-68
2021/09/08 02:21:38;;;;;;;17.98;16.08;;;13.80;99.90;;;;;;5054435;28;20197;-66
2021/09/08 02:24:06;;;;;;;17.10;15.30;;;13.70;99.90;;;;;;5055148;28;20197;-68
2021/09/08 02:26:34;;;;;;;17.98;15.85;;;13.70;99.90;;;;;;5054843;28;20225;-67
2021/09/08 02:29:02;;;;;;;23.33;16.00;;;13.70;99.90;;;;;;5054525;28;20212;-68
2021/09/08 02:31:30;;;;;;;20.73;16.47;;;13.70;99.90;;;;;;5054413;28;20645;-68
2021/09/08 02:33:59;;;;;;;18.17;15.65;;;13.60;99.90;;;;;;5053825;28;20206;-67
2021/09/08 02:36:27;;;;;;;20.65;15.65;;;13.60;99.90;;;;;;5054059;28;20609;-68
2021/09/08 02:38:55;;;;;;;19.00;14.73;;;13.60;99.90;;;;;;5054572;28;20293;-67
2021/09/08 02:41:24;;;;;;;17.40;15.13;;;13.60;99.90;;;;;;5054272;28;20776;-68
2021/09/08 02:43:52;;;;;;;18.53;15.13;;;13.60;99.90;;;;;;5054325;28;20197;-68
2021/09/08 02:46:20;;;;;;;18.63;15.40;;;13.50;99.90;;;;;;5054013;28;20205;-68
2021/09/08 02:48:48;;;;;;;19.00;15.65;;;13.50;99.90;;;;;;5054431;28;20202;-68
2021/09/08 02:51:17;;;;;;;19.03;14.77;;;13.50;99.90;;;;;;5054323;28;20201;-68
2021/09/08 02:53:45;;;;;;;17.47;15.53;;;13.50;99.90;;;;;;5054015;28;20201;-68
2021/09/08 02:56:13;;;;;;;21.17;15.33;;;13.50;99.90;;;;;;5054250;28;20288;-68
2021/09/08 02:58:41;;;;;;;19.67;15.53;;;13.50;99.90;;;;;;5054097;28;20297;-68
2021/09/08 03:01:11;;;;;;;19.67;15.20;;;13.40;99.90;;;;;;5053645;28;20696;-67
2021/09/08 03:03:39;;;;;;;18.98;15.60;;;13.40;99.90;;;;;;5053894;28;20229;-68
2021/09/08 03:06:07;;;;;;;19.27;15.27;;;13.40;99.90;;;;;;5053592;28;20851;-68
2021/09/08 03:08:36;;;;;;;18.07;15.70;;;13.40;99.90;;;;;;5053661;28;20211;-67
2021/09/08 03:11:04;;;;;;;22.40;16.80;;;13.30;99.90;;;;;;5054027;28;20229;-68
2021/09/08 03:13:32;;;;;;;20.97;16.20;;;13.40;99.90;;;;;;5053525;28;20649;-68
2021/09/08 03:16:00;;;;;;;18.85;15.68;;;13.40;99.90;;;;;;5053672;28;20193;-68
2021/09/08 03:18:28;;;;;;;18.97;16.23;;;13.40;99.90;;;;;;5053492;28;20639;-67
2021/09/08 03:20:56;;;;;;;20.70;16.47;;;13.30;99.90;;;;;;5053720;28;20288;-68
2021/09/08 03:23:24;;;;;;;20.55;15.57;;;13.30;99.90;;;;;;5053551;28;20198;-68
2021/09/08 03:25:53;;;;;;;19.50;15.73;;;13.30;99.90;;;;;;5053548;28;20236;-67
2021/09/08 03:28:21;;;;;;;18.83;15.63;;;13.30;99.90;;;;;;5053618;28;20197;-68
2021/09/08 03:30:49;;;;;;;21.00;16.53;;;13.30;99.90;;;;;;5053042;28;20671;-67
2021/09/08 03:33:16;;;;;;;20.60;16.07;;;13.30;99.90;;;;;;5053430;28;20201;-67
2021/09/08 03:35:44;;;;;;;19.45;15.50;;;13.30;99.90;;;;;;5053408;28;20748;-67
2021/09/08 03:38:12;;;;;;;20.33;15.97;;;13.30;99.90;;;;;;5052989;28;20228;-67
2021/09/08 03:40:40;;;;;;;21.85;16.73;;;13.20;99.90;;;;;;5053269;28;20202;-66
2021/09/08 03:43:09;;;;;;;17.47;15.43;;;13.20;99.90;;;;;;5053339;28;20289;-67
2021/09/08 03:45:37;;;;;;;18.87;15.93;;;13.20;99.90;;;;;;5051988;28;20246;-67
2021/09/08 03:48:05;;;;;;;20.10;15.50;;;13.20;99.90;;;;;;5053208;28;20216;-67
2021/09/08 03:50:33;;;;;;;19.63;16.67;;;13.20;99.90;;;;;;5053180;28;20205;-67
2021/09/08 03:53:02;;;;;;;20.53;16.70;;;13.20;99.90;;;;;;5052924;28;20292;-67
2021/09/08 03:55:30;;;;;;;21.48;16.92;;;13.20;99.90;;;;;;5053098;28;20300;-67
2021/09/08 03:57:57;;;;;;;20.75;15.85;;;13.20;99.90;;;;;;5053045;28;20213;-67
2021/09/08 04:00:27;;;;;;;19.57;15.17;;;13.20;99.90;;;;;;5052574;28;20209;-67
2021/09/08 04:02:59;;;;;;;20.07;15.57;;;13.20;99.90;;;;;;5052848;28;20198;-68
2021/09/08 04:05:27;;;;;;;18.93;15.80;;;13.10;99.90;;;;;;5052739;28;20328;-67
2021/09/08 04:07:55;;;;;;;21.33;15.37;;;13.10;99.90;;;;;;5052626;28;20207;-68
2021/09/08 04:10:24;;;;;;;19.00;16.57;;;13.10;99.90;;;;;;5052823;28;20311;-68
2021/09/08 04:12:52;;;;;;;19.20;16.27;;;13.10;99.90;;;;;;5052779;28;20201;-67
2021/09/08 04:15:21;;;;;;;19.70;16.27;;;13.10;99.90;;;;;;5052437;28;20666;-68
2021/09/08 04:17:50;;;;;;;21.83;16.07;;;13.00;99.90;;;;;;5052618;28;20217;-67
2021/09/08 04:20:18;;;;;;;21.17;15.47;;;13.00;99.90;;;;;;5052669;28;20199;-68
2021/09/08 04:22:46;;;;;;;20.50;16.00;;;13.00;99.90;;;;;;5052506;28;20201;-67
2021/09/08 04:25:13;;;;;;;19.80;16.47;;;13.00;99.90;;;;;;5052613;28;20208;-67
2021/09/08 04:27:41;;;;;;;19.53;15.27;;;13.00;99.90;;;;;;5052522;28;20285;-67
2021/09/08 04:30:10;;;;;;;19.92;16.02;;;13.00;99.90;;;;;;5052068;28;20208;-68
2021/09/08 04:32:38;;;;;;;23.17;16.25;;;13.10;99.90;;;;;;5052703;28;20312;-68
2021/09/08 04:35:09;;;;;;;19.87;15.80;;;13.00;99.90;;;;;;5052511;28;20296;-68
2021/09/08 04:37:37;;;;;;;20.40;16.05;;;13.00;99.90;;;;;;5051960;28;20270;-67
2021/09/08 04:40:06;;;;;;;22.80;16.40;;;13.00;99.90;;;;;;5052512;28;20577;-68
2021/09/08 04:42:34;;;;;;;20.13;16.52;;;13.00;99.90;;;;;;5052535;28;20205;-67
2021/09/08 04:45:03;;;;;;;20.37;17.00;;;13.00;99.90;;;;;;5052219;28;20202;-69
2021/09/08 04:47:31;;;;;;;21.30;16.80;;;13.00;99.90;;;;;;5052414;28;20197;-68
2021/09/08 04:49:59;;;;;;;20.73;16.03;;;13.00;99.90;;;;;;5052541;28;20205;-69
2021/09/08 04:52:30;;;;;;;23.00;17.60;;;13.00;99.90;;;;;;5052016;28;20208;-68
2021/09/08 04:54:58;;;;;;;23.13;18.03;;;13.10;99.90;;;;;;5052208;28;20280;-68
2021/09/08 04:57:25;;;;;;;20.40;16.73;;;13.10;99.90;;;;;;5056356;28;20197;-67
2021/09/08 04:59:53;;;;;;;23.33;17.87;;;13.10;99.90;;;;;;5056140;28;20232;-67
2021/09/08 05:02:21;;;;;;;21.70;16.77;;;13.20;99.90;;;;;;5056336;28;20236;-67
2021/09/08 05:04:49;;;;;;;20.30;15.73;;;13.20;99.90;;;;;;5055682;28;20665;-67
2021/09/08 05:07:17;;;;;;;19.00;16.40;;;13.20;99.90;;;;;;5055850;28;20239;-68
2021/09/08 05:09:46;;;;;;;19.20;15.83;;;13.20;99.90;;;;;;5055721;28;20667;-67
2021/09/08 05:12:14;;;;;;;21.38;16.90;;;13.30;99.90;;;;;;5055914;28;20209;-67
2021/09/08 05:14:42;;;;;;;19.58;16.48;;;13.30;99.90;;;;;;5055685;28;20645;-67
2021/09/08 05:17:09;;;;;;;20.08;16.15;;;13.40;99.90;;;;;;5055850;28;20197;-68
2021/09/08 05:19:37;;;;;;;19.57;16.40;;;13.40;99.90;;;;;;5055812;28;20275;-68
2021/09/08 05:22:05;;;;;;;21.63;17.60;;;13.50;99.90;;;;;;5055906;28;20201;-67
2021/09/08 05:24:33;;;;;;;19.80;16.42;;;13.50;99.90;;;;;;5055658;28;20284;-67
2021/09/08 05:27:02;;;;;;;20.87;16.03;;;13.70;99.90;;;;;;5055706;28;20198;-67
2021/09/08 05:29:30;;;;;;;20.98;15.00;;;13.80;99.90;;;;;;5055619;28;20197;-67
2021/09/08 05:31:58;;;;;;;20.63;15.30;;;14.00;99.90;;;;;;5055410;28;20205;-67
2021/09/08 05:34:26;;;;;;;17.13;13.95;;;14.10;99.90;;;;;;5055537;28;20201;-68
2021/09/08 05:36:54;;;;;;;16.63;13.80;;;14.20;99.90;;;;;;5055376;28;20231;-67
2021/09/08 05:39:21;;;;;;;16.50;13.88;;;14.40;99.90;;;;;;5055164;28;20227;-67
2021/09/08 05:41:49;;;;;;;17.10;14.52;;;14.50;99.90;;;;;;5055376;28;20255;-68
2021/09/08 05:44:18;;;;;;;16.75;14.23;;;14.60;99.90;;;;;;5055137;28;20229;-68
2021/09/08 05:46:46;;;;;;;18.00;14.25;;;14.70;99.90;;;;;;5055286;28;20201;-68
2021/09/08 05:49:15;;;;;;;17.95;13.93;;;14.80;99.90;;;;;;5055270;28;20641;-67
2021/09/08 05:51:43;;;;;;;16.00;13.88;;;14.90;99.90;;;;;;5055277;28;20296;-66
2021/09/08 05:54:11;;;;;;;17.55;14.45;;;15.00;99.90;;;;;;5055246;28;20205;-67
2021/09/08 05:56:38;;;;;;;16.00;13.73;;;15.00;99.90;;;;;;5054944;28;20206;-67
2021/09/08 05:59:06;;;;;;;15.35;13.57;;;15.10;99.90;;;;;;5054827;28;20228;-67
2021/09/08 06:01:35;;;;;;;16.08;12.65;;;15.20;99.90;;;;;;5055030;28;20297;-68
2021/09/08 06:04:04;;;;;;;15.95;13.35;;;15.30;99.90;;;;;;5055214;28;20202;-69
2021/09/08 06:06:32;;;;;;;18.25;13.77;;;15.40;99.90;;;;;;5054811;28;20269;-67
2021/09/08 06:09:00;;;;;;;17.75;14.40;;;15.40;99.90;;;;;;5053636;28;20208;-67
2021/09/08 06:11:28;;;;;;;17.25;14.48;;;15.50;99.90;;;;;;5054712;28;20228;-67
2021/09/08 06:13:55;;;;;;;17.95;14.00;;;15.50;99.90;;;;;;5055023;28;20300;-67
2021/09/08 06:16:23;;;;;;;18.20;14.27;;;15.60;99.90;;;;;;5054386;28;20788;-69
2021/09/08 06:18:53;;;;;;;16.15;13.38;;;15.70;99.90;;;;;;5054742;28;20316;-68
2021/09/08 06:21:21;;;;;;;14.90;13.30;;;15.80;99.90;;;;;;5054433;28;20587;-68
2021/09/08 06:23:49;;;;;;;17.08;13.82;;;15.90;99.90;;;;;;5054532;28;20202;-68
2021/09/08 06:26:17;;;;;;;16.35;13.05;;;15.90;99.90;;;;;;5054474;28;20304;-68
2021/09/08 06:28:49;;;;;;;15.75;14.07;;;16.00;99.90;;;;;;5054832;28;20282;-69
2021/09/08 06:31:16;;;;;;;15.07;11.88;;;16.00;99.90;;;;;;5054313;28;20263;-67
2021/09/08 06:33:44;;;;;;;16.05;14.10;;;16.00;99.90;;;;;;5054489;28;20251;-68
2021/09/08 06:36:14;;;;;;;14.73;12.80;;;16.00;99.90;;;;;;5054364;28;20294;-67
2021/09/08 06:38:41;;;;;;;15.18;12.93;;;16.00;99.90;;;;;;5054254;28;20576;-67
2021/09/08 06:41:09;;;;;;;15.13;12.57;;;16.10;99.90;;;;;;5054413;28;20201;-67
2021/09/08 06:43:37;;;;;;;17.13;13.45;;;16.20;99.90;;;;;;5054462;28;20201;-68
2021/09/08 06:46:05;;;;;;;17.55;12.98;;;16.20;99.90;;;;;;5054281;28;20629;-67
2021/09/08 06:48:33;;;;;;;16.00;13.75;;;16.20;99.90;;;;;;5054790;28;20276;-68
2021/09/08 06:51:01;;;;;;;14.95;12.55;;;16.30;99.90;;;;;;5054481;28;20212;-67
2021/09/08 06:53:30;;;;;;;15.35;12.82;;;16.30;99.90;;;;;;5054245;28;20197;-68
2021/09/08 06:55:58;;;;;;;17.58;14.15;;;16.40;99.90;;;;;;5054204;28;20197;-67
2021/09/08 06:58:26;;;;;;;14.68;12.63;;;16.50;99.90;;;;;;5053789;28;20297;-67
2021/09/08 07:00:54;;;;;;;16.05;13.80;;;16.40;99.90;;;;;;5053902;28;20205;-67
2021/09/08 07:03:22;;;;;;;16.33;12.35;;;16.50;99.90;;;;;;5054086;28;20205;-69
2021/09/08 07:05:50;;;;;;;14.85;12.32;;;16.60;99.90;;;;;;5053775;28;20234;-67
2021/09/08 07:08:18;;;;;;;16.77;14.10;;;16.70;99.90;;;;;;5053992;28;20404;-67
2021/09/08 07:10:48;;;;;;;19.40;12.68;;;17.00;99.90;;;;;;5053958;28;20295;-68
2021/09/08 07:13:16;;;;;;;15.82;13.27;;;17.20;99.90;;;;;;5054027;28;20201;-68
2021/09/08 07:15:44;;;;;;;14.50;12.25;;;17.30;99.90;;;;;;5053599;28;20608;-67
2021/09/08 07:18:12;;;;;;;15.73;12.77;;;17.30;99.90;;;;;;5053683;28;20204;-69
2021/09/08 07:20:41;;;;;;;15.68;12.85;;;17.30;99.90;;;;;;5053500;28;20686;-68
2021/09/08 07:23:09;;;;;;;14.80;12.70;;;17.40;99.90;;;;;;5053494;28;20205;-68
2021/09/08 07:25:37;;;;;;;14.85;11.80;;;17.40;99.90;;;;;;5053469;28;20249;-68
2021/09/08 07:28:06;;;;;;;19.73;14.10;;;17.40;99.90;;;;;;5053596;28;20201;-70
2021/09/08 07:30:34;;;;;;;14.38;12.63;;;17.50;99.90;;;;;;5053345;28;20193;-68
2021/09/08 07:33:02;;;;;;;16.67;13.82;;;17.50;99.90;;;;;;5053596;28;20289;-69
2021/09/08 07:35:30;;;;;;;14.73;12.55;;;17.60;99.90;;;;;;5053479;28;20229;-68
2021/09/08 07:38:00;;;;;;;14.45;12.35;;;17.70;99.90;;;;;;5053332;28;20288;-68
2021/09/08 07:40:28;;;;;;;14.80;11.90;;;17.80;99.90;;;;;;5053189;28;20217;-68
2021/09/08 07:42:56;;;;;;;13.07;11.20;;;17.80;99.90;;;;;;5053112;28;20300;-69
2021/09/08 07:45:25;;;;;;;15.35;11.73;;;17.90;99.90;;;;;;5052970;28;20223;-69
2021/09/08 07:47:53;;;;;;;14.95;11.10;;;18.00;99.90;;;;;;5053071;28;20207;-70
2021/09/08 07:50:21;;;;;;;14.32;12.68;;;18.10;99.90;;;;;;5052700;28;20649;-68
2021/09/08 07:52:48;;;;;;;14.02;11.85;;;18.20;99.90;;;;;;5052952;28;20197;-68
2021/09/08 07:55:17;;;;;;;14.27;12.05;;;18.30;99.90;;;;;;5052865;28;20197;-70
2021/09/08 07:57:45;;;;;;;12.95;11.50;;;18.30;99.90;;;;;;5052784;28;20724;-68
2021/09/08 08:00:14;;;;;;;13.70;11.73;;;18.40;99.90;;;;;;5052562;28;20244;-69
2021/09/08 08:02:45;;;;;;;15.02;11.77;;;18.50;99.90;;;;;;5052641;28;20656;-67
2021/09/08 08:05:14;;;;;;;12.25;10.95;;;18.50;99.90;;;;;;5052336;28;20267;-67
2021/09/08 08:07:42;;;;;;;14.73;12.48;;;18.60;99.90;;;;;;5052707;28;20297;-67
2021/09/08 08:10:11;;;;;;;14.80;12.27;;;18.60;99.90;;;;;;5052915;28;20300;-69
2021/09/08 08:12:39;;;;;;;15.52;12.57;;;18.70;99.90;;;;;;5052765;28;20263;-68
2021/09/08 08:15:09;;;;;;;13.45;11.23;;;18.80;99.90;;;;;;5052274;28;20645;-68
2021/09/08 08:17:38;;;;;;;16.02;11.88;;;18.90;99.90;;;;;;5052831;28;20190;-68
2021/09/08 08:20:11;;;;;;;16.27;12.50;;;18.90;99.90;;;;;;5052357;28;20240;-67
2021/09/08 08:22:41;;;;;;;16.42;12.98;;;19.00;99.90;;;;;;5052692;28;20190;-68
2021/09/08 08:25:11;;;;;;;13.88;11.35;;;19.10;99.90;;;;;;5051688;28;20248;-67
2021/09/08 08:27:40;;;;;;;17.05;12.60;;;19.10;99.90;;;;;;5052204;28;20276;-68
2021/09/08 08:30:10;;;;;;;13.45;11.48;;;19.20;99.90;;;;;;5052006;28;20209;-68
2021/09/08 08:32:39;;;;;;;15.40;11.35;;;19.30;99.90;;;;;;5052685;28;20229;-68
2021/09/08 08:35:09;;;;;;;13.55;10.75;;;19.40;99.90;;;;;;5052584;28;20197;-69
2021/09/08 08:37:38;;;;;;;15.93;12.13;;;19.50;99.90;;;;;;5052419;28;20488;-68
2021/09/08 08:40:08;;;;;;;16.15;11.07;;;19.50;99.90;;;;;;5052347;28;20225;-68
2021/09/08 08:42:37;;;;;;;13.75;11.50;;;19.70;99.90;;;;;;5052783;28;20194;-68
2021/09/08 08:45:07;;;;;;;15.05;11.60;;;19.70;99.90;;;;;;5052552;28;20289;-68
2021/09/08 08:47:38;;;;;;;12.90;10.93;;;19.80;99.90;;;;;;5052360;28;20268;-68
2021/09/08 08:50:10;;;;;;;14.52;11.35;;;19.90;99.90;;;;;;5052323;28;20280;-69
2021/09/08 08:52:39;;;;;;;12.82;11.38;;;20.00;99.90;;;;;;5052116;28;20186;-68
2021/09/08 08:55:08;;;;;;;13.57;10.73;;;20.00;99.90;;;;;;5052378;28;20562;-67
2021/09/08 08:57:37;;;;;;;13.20;11.15;;;20.10;99.90;;;;;;5052416;28;20209;-68
2021/09/08 09:00:06;;;;;;;13.45;10.93;;;20.10;99.90;;;;;;5052081;28;20247;-68
2021/09/08 09:02:36;;;;;;;12.82;10.48;;;20.20;99.90;;;;;;5052407;28;20293;-67
2021/09/08 09:05:07;;;;;;;11.73;10.27;;;20.30;99.90;;;;;;5052104;28;20233;-68
2021/09/08 09:07:42;;;;;;;13.55;11.52;;;20.30;99.90;;;;;;5052355;28;20202;-68
2021/09/08 09:10:13;;;;;;;12.65;10.68;;;20.40;99.90;;;;;;5052326;28;20196;-68
2021/09/08 09:12:44;;;;;;;13.38;11.45;;;20.40;99.90;;;;;;5052559;28;20252;-69
2021/09/08 09:15:14;;;;;;;12.93;10.65;;;20.50;99.90;;;;;;5052350;28;20194;-68
2021/09/08 09:17:42;;;;;;;15.80;10.55;;;20.60;99.90;;;;;;5052125;28;20658;-68
2021/09/08 09:20:13;;;;;;;12.82;11.20;;;20.70;99.90;;;;;;5052124;28;20228;-68
2021/09/08 09:22:45;;;;;;;15.73;11.57;;;20.90;99.90;;;;;;5051896;28;20189;-69
2021/09/08 09:25:15;;;;;;;10.48;9.38;;;20.90;99.90;;;;;;5051946;28;20232;-69
2021/09/08 09:27:46;;;;;;;14.13;11.00;;;21.00;99.90;;;;;;5051764;28;20299;-70
2021/09/08 09:30:17;;;;;;;11.70;10.27;;;21.00;99.90;;;;;;5051822;28;20182;-69
2021/09/08 09:32:46;;;;;;;12.45;10.23;;;21.10;99.90;;;;;;5051744;28;20523;-70
2021/09/08 09:35:17;;;;;;;12.00;10.80;;;21.20;99.90;;;;;;5051627;28;20665;-69
2021/09/08 09:37:48;;;;;;;12.00;10.48;;;21.30;99.90;;;;;;5051729;28;20292;-68
2021/09/08 09:40:17;;;;;;;10.75;9.65;;;21.40;99.90;;;;;;5051723;28;20225;-70
2021/09/08 09:42:46;;;;;;;13.60;10.88;;;21.50;99.90;;;;;;5052653;28;20542;-68
2021/09/08 09:45:15;;;;;;;13.90;10.60;;;21.60;99.90;;;;;;5055097;28;20632;-68
2021/09/08 09:47:46;;;;;;;16.20;11.43;;;21.60;99.90;;;;;;5055583;28;20201;-67
2021/09/08 09:50:18;;;;;;;14.82;10.30;;;21.70;99.90;;;;;;5055113;28;20556;-69
2021/09/08 09:52:48;;;;;;;15.10;10.80;;;21.80;99.90;;;;;;5055224;28;20217;-68
2021/09/08 09:55:17;;;;;;;15.63;11.35;;;21.80;99.90;;;;;;5055405;28;20201;-67
2021/09/08 09:57:45;;;;;;;12.43;10.73;;;21.90;99.90;;;;;;5055249;28;20216;-69
2021/09/08 10:00:15;;;;;;;16.70;11.13;;;22.00;99.90;;;;;;5054547;28;20292;-69
2021/09/08 10:02:44;;;;;;;11.70;10.15;;;22.00;99.90;;;;;;5054829;28;20303;-68
2021/09/08 10:05:14;;;;;;;12.32;11.02;;;22.10;99.90;;;;;;5055090;28;20229;-68
2021/09/08 10:07:43;;;;;;;11.55;10.35;;;22.20;99.90;;;;;;5054663;28;20650;-68
2021/09/08 10:10:17;;;;;;;12.50;10.18;;;22.20;99.90;;;;;;5055279;28;20205;-68
2021/09/08 10:12:47;;;;;;;14.25;11.05;;;22.20;99.90;;;;;;5054958;28;20182;-68
2021/09/08 10:15:17;;;;;;;11.38;10.18;;;22.30;99.90;;;;;;5054946;28;20186;-68
2021/09/08 10:17:46;;;;;;;15.85;10.85;;;22.40;99.90;;;;;;5055050;28;20209;-69
2021/09/08 10:20:18;;;;;;;13.32;10.18;;;22.50;99.90;;;;;;5054627;28;20198;-68
2021/09/08 10:22:46;;;;;;;10.80;9.70;;;22.50;99.90;;;;;;5055130;28;20362;-70
2021/09/08 10:25:18;;;;;;;11.23;10.02;;;22.50;99.90;;;;;;5054283;28;20683;-68
2021/09/08 10:27:51;;;;;;;12.18;10.30;;;22.60;99.90;;;;;;5054620;28;20192;-69
2021/09/08 10:30:37;;;;;;;10.98;9.60;;;22.70;99.90;;;;;;5054241;28;20213;-70
2021/09/08 10:33:07;;;;;;;11.18;10.07;;;22.80;99.90;;;;;;5054741;28;20296;-68
2021/09/08 10:35:39;;;;;;;11.02;9.93;;;22.80;99.90;;;;;;5054441;28;20557;-69
2021/09/08 10:38:13;;;;;;;11.80;10.20;;;22.80;99.90;;;;;;5054164;28;20210;-69
2021/09/08 10:40:47;;;;;;;12.18;9.52;;;22.90;99.90;;;;;;5054396;28;20224;-69
2021/09/08 10:43:15;;;;;;;13.73;9.98;;;23.00;99.90;;;;;;5054535;28;20273;-67
2021/09/08 10:45:51;;;;;;;10.23;9.20;;;23.00;99.90;;;;;;5054160;28;20290;-67
2021/09/08 10:48:38;;;;;;;12.77;9.85;;;23.00;99.90;;;;;;5054183;28;20637;-70
2021/09/08 10:51:07;;;;;;;12.23;9.95;;;23.10;99.90;;;;;;5054355;28;20189;-68
2021/09/08 10:53:37;;;;;;;11.30;10.20;;;23.20;99.90;;;;;;5053430;28;20250;-67
2021/09/08 10:56:08;;;;;;;10.68;9.57;;;23.20;99.90;;;;;;5054124;28;20220;-67
2021/09/08 10:58:59;;;;;;;12.00;10.32;;;23.20;99.90;;;;;;5054157;28;20185;-68
2021/09/08 11:01:28;;;;;;;10.48;9.38;;;23.30;99.90;;;;;;5053815;28;20252;-68
2021/09/08 11:03:57;;;;;;;11.88;10.40;;;23.30;99.90;;;;;;5054012;28;20301;-67
2021/09/08 11:06:33;;;;;;;10.40;9.13;;;23.30;99.90;;;;;;5053780;28;20237;-68
2021/09/08 11:09:03;;;;;;;13.02;10.20;;;23.40;99.90;;;;;;5053823;28;20243;-68
2021/09/08 11:11:32;;;;;;;10.98;9.27;;;23.50;99.90;;;;;;5053951;28;20205;-68
2021/09/08 11:14:00;;;;;;;16.77;9.30;;;23.50;99.90;;;;;;5053795;28;20316;-68
2021/09/08 11:16:30;;;;;;;13.63;9.45;;;23.50;99.90;;;;;;5053714;28;20292;-68
2021/09/08 11:19:00;;;;;;;11.80;9.32;;;23.60;99.90;;;;;;5053799;28;20213;-68
2021/09/08 11:21:30;;;;;;;12.20;9.98;;;23.60;99.90;;;;;;5053125;28;20231;-69
2021/09/08 11:24:01;;;;;;;10.27;9.27;;;23.70;99.90;;;;;;5053420;28;20232;-67
2021/09/08 11:26:32;;;;;;;11.77;9.98;;;23.70;99.90;;;;;;5053359;28;20257;-68
2021/09/08 11:29:02;;;;;;;9.55;8.65;;;23.70;99.90;;;;;;5053594;28;20212;-67
2021/09/08 11:31:36;;;;;;;11.07;9.77;;;23.70;99.90;;;;;;5053311;28;20284;-68
2021/09/08 11:34:05;;;;;;;13.68;10.13;;;23.80;99.90;;;;;;5053098;28;20187;-70
2021/09/08 11:36:33;;;;;;;13.80;10.40;;;23.80;99.90;;;;;;5053393;28;20209;-71
2021/09/08 11:39:01;;;;;;;9.93;9.02;;;23.90;99.90;;;;;;5053112;28;20205;-68
2021/09/08 11:41:31;;;;;;;10.43;9.32;;;23.90;99.90;;;;;;5053454;28;20328;-67
2021/09/08 11:44:03;;;;;;;12.95;10.10;;;23.90;99.90;;;;;;5053423;28;20534;-69
2021/09/08 11:46:33;;;;;;;10.90;9.90;;;23.90;99.90;;;;;;5053040;28;20276;-69
2021/09/08 11:49:05;;;;;;;10.13;9.13;;;23.90;99.90;;;;;;5052972;28;20288;-68
2021/09/08 11:51:35;;;;;;;10.55;9.45;;;23.90;99.90;;;;;;5053190;28;20207;-70
2021/09/08 11:54:04;;;;;;;12.52;9.48;;;23.90;99.90;;;;;;5053198;28;20185;-68
2021/09/08 11:56:34;;;;;;;9.80;8.70;;;24.00;99.90;;;;;;5053375;28;20295;-68
2021/09/08 11:59:04;;;;;;;10.93;9.55;;;24.00;99.90;;;;;;5053119;28;20300;-69
2021/09/08 12:01:33;;;;;;;9.80;8.80;;;24.00;99.90;;;;;;5052815;28;20198;-69
2021/09/08 12:04:03;;;;;;;12.40;9.48;;;24.10;99.90;;;;;;5052736;28;20197;-68
2021/09/08 12:06:33;;;;;;;10.50;9.27;;;24.10;99.90;;;;;;5052057;28;20237;-68
2021/09/08 12:09:10;;;;;;;10.15;8.95;;;24.20;99.90;;;;;;5052771;28;20255;-69
2021/09/08 12:11:44;;;;;;;9.52;8.55;;;24.20;99.90;;;;;;5053009;28;20284;-66
2021/09/08 12:14:20;;;;;;;9.68;8.38;;;24.20;99.90;;;;;;5052762;28;20846;-67
2021/09/08 12:16:50;;;;;;;12.25;9.48;;;24.10;99.90;;;;;;5052745;28;20217;-68
2021/09/08 12:19:19;;;;;;;10.55;9.55;;;24.20;99.90;;;;;;5052812;28;20197;-68
2021/09/08 12:21:47;;;;;;;9.27;8.38;;;24.30;99.90;;;;;;5052723;28;20312;-68
2021/09/08 12:24:19;;;;;;;9.85;8.80;;;24.20;99.90;;;;;;5052707;28;20207;-68
2021/09/08 12:26:49;;;;;;;9.52;8.65;;;24.20;99.90;;;;;;5052566;28;20201;-68
2021/09/08 12:29:16;;;;;;;9.73;8.73;;;24.40;99.90;;;;;;5052454;28;20197;-69
2021/09/08 12:31:50;;;;;;;10.00;8.93;;;24.40;99.90;;;;;;5052201;28;20692;-68
2021/09/08 12:34:18;;;;;;;10.80;9.05;;;24.30;99.90;;;;;;5052564;28;20277;-70
2021/09/08 12:36:46;;;;;;;10.10;9.10;;;24.40;99.90;;;;;;5052565;28;20559;-67